sensor_id;sensor_type;location;lat;lon;timestamp;pressure;altitude;pressure_sealevel;temperature;humidity
72975;BME280;61166;54.228;37.632;2023-04-07T00:01:09;99890.91;;;5.00;nan
72975;BME280;61166;54.228;37.632;2023-04-07T00:03:35;99894.97;;;4.94;nan
72975;BME280;61166;54.228;37.632;2023-04-07T00:06:02;99885.03;;;4.98;nan
72975;BME280;61166;54.228;37.632;2023-04-07T00:08:29;99896.53;;;4.79;nan
72975;BME280;61166;54.228;37.632;2023-04-07T00:10:56;99889.72;;;4.86;nan
72975;BME280;61166;54.228;37.632;2023-04-07T00:13:22;99898.50;;;4.85;nan
72975;BME280;61166;54.228;37.632;2023-04-07T00:15:49;99892.13;;;4.80;nan
72975;BME280;61166;54.228;37.632;2023-04-07T00:18:16;99895.84;;;4.69;nan
72975;BME280;61166;54.228;37.632;2023-04-07T00:23:09;99900.78;;;4.46;nan
72975;BME280;61166;54.228;37.632;2023-04-07T00:28:01;99897.06;;;4.49;nan
72975;BME280;61166;54.228;37.632;2023-04-07T00:32:54;99897.63;;;4.35;nan
72975;BME280;61166;54.228;37.632;2023-04-07T00:35:21;99902.31;;;4.31;nan
72975;BME280;61166;54.228;37.632;2023-04-07T00:37:48;99905.94;;;4.38;nan
72975;BME280;61166;54.228;37.632;2023-04-07T00:42:42;99898.53;;;4.25;nan
72975;BME280;61166;54.228;37.632;2023-04-07T00:45:09;99897.50;;;4.18;nan
72975;BME280;61166;54.228;37.632;2023-04-07T00:47:35;99899.66;;;4.23;nan
72975;BME280;61166;54.228;37.632;2023-04-07T00:50:03;99893.53;;;4.32;nan
72975;BME280;61166;54.228;37.632;2023-04-07T00:52:31;99893.63;;;4.22;nan
72975;BME280;61166;54.228;37.632;2023-04-07T00:57:25;99899.75;;;4.13;nan
72975;BME280;61166;54.228;37.632;2023-04-07T01:02:28;99896.09;;;3.98;nan
72975;BME280;61166;54.228;37.632;2023-04-07T01:10:36;99896.94;;;3.81;nan
72975;BME280;61166;54.228;37.632;2023-04-07T01:29:06;99899.09;;;3.32;nan
72975;BME280;61166;54.228;37.632;2023-04-07T01:31:38;99904.13;;;3.51;nan
72975;BME280;61166;54.228;37.632;2023-04-07T01:34:09;99909.88;;;3.37;nan
72975;BME280;61166;54.228;37.632;2023-04-07T01:36:36;99903.94;;;3.45;nan
72975;BME280;61166;54.228;37.632;2023-04-07T01:39:03;99912.78;;;3.34;nan
72975;BME280;61166;54.228;37.632;2023-04-07T01:41:31;99898.47;;;3.20;nan
72975;BME280;61166;54.228;37.632;2023-04-07T01:43:59;99898.25;;;3.14;nan
72975;BME280;61166;54.228;37.632;2023-04-07T01:46:27;99902.97;;;3.01;nan
72975;BME280;61166;54.228;37.632;2023-04-07T01:48:54;99920.59;;;3.07;nan
72975;BME280;61166;54.228;37.632;2023-04-07T01:53:48;99895.19;;;3.01;nan
72975;BME280;61166;54.228;37.632;2023-04-07T01:58:41;99894.88;;;3.04;nan
72975;BME280;61166;54.228;37.632;2023-04-07T02:01:08;99905.56;;;3.01;nan
72975;BME280;61166;54.228;37.632;2023-04-07T02:06:23;99892.72;;;2.99;nan
72975;BME280;61166;54.228;37.632;2023-04-07T02:08:53;99899.31;;;2.93;nan
72975;BME280;61166;54.228;37.632;2023-04-07T02:11:23;99901.44;;;3.08;nan
72975;BME280;61166;54.228;37.632;2023-04-07T02:13:53;99900.38;;;3.01;nan
72975;BME280;61166;54.228;37.632;2023-04-07T02:18:48;99900.50;;;2.99;nan
72975;BME280;61166;54.228;37.632;2023-04-07T02:21:15;99908.59;;;2.96;nan
72975;BME280;61166;54.228;37.632;2023-04-07T02:23:42;99902.72;;;2.94;nan
72975;BME280;61166;54.228;37.632;2023-04-07T02:26:09;99908.28;;;2.81;nan
72975;BME280;61166;54.228;37.632;2023-04-07T02:28:35;99912.81;;;2.79;nan
72975;BME280;61166;54.228;37.632;2023-04-07T02:33:28;99911.47;;;2.75;nan
72975;BME280;61166;54.228;37.632;2023-04-07T02:35:54;99917.63;;;2.74;nan
72975;BME280;61166;54.228;37.632;2023-04-07T02:38:21;99924.34;;;2.67;nan
72975;BME280;61166;54.228;37.632;2023-04-07T02:40:48;99913.97;;;2.57;nan
72975;BME280;61166;54.228;37.632;2023-04-07T02:43:14;99915.59;;;2.68;nan
72975;BME280;61166;54.228;37.632;2023-04-07T02:45:41;99918.31;;;2.67;nan
72975;BME280;61166;54.228;37.632;2023-04-07T02:48:07;99915.88;;;2.65;nan
72975;BME280;61166;54.228;37.632;2023-04-07T02:50:34;99922.09;;;2.82;nan
72975;BME280;61166;54.228;37.632;2023-04-07T02:53:00;99924.56;;;2.83;nan
72975;BME280;61166;54.228;37.632;2023-04-07T02:57:53;99930.69;;;3.10;nan
72975;BME280;61166;54.228;37.632;2023-04-07T03:00:20;99924.75;;;3.17;nan
72975;BME280;61166;54.228;37.632;2023-04-07T03:02:46;99927.03;;;3.30;nan
72975;BME280;61166;54.228;37.632;2023-04-07T03:05:13;99927.63;;;3.42;nan
72975;BME280;61166;54.228;37.632;2023-04-07T03:07:39;99928.22;;;3.89;nan
72975;BME280;61166;54.228;37.632;2023-04-07T03:12:32;99928.38;;;4.57;nan
72975;BME280;61166;54.228;37.632;2023-04-07T03:14:59;99927.69;;;4.89;nan
72975;BME280;61166;54.228;37.632;2023-04-07T03:17:26;99919.50;;;5.18;nan
72975;BME280;61166;54.228;37.632;2023-04-07T03:22:19;99937.03;;;5.74;nan
72975;BME280;61166;54.228;37.632;2023-04-07T03:24:45;99921.41;;;6.07;nan
72975;BME280;61166;54.228;37.632;2023-04-07T03:29:38;99930.56;;;6.82;nan
72975;BME280;61166;54.228;37.632;2023-04-07T03:34:31;99935.13;;;7.50;nan
72975;BME280;61166;54.228;37.632;2023-04-07T03:36:57;99931.16;;;7.77;nan
72975;BME280;61166;54.228;37.632;2023-04-07T03:39:24;99926.84;;;8.22;nan
72975;BME280;61166;54.228;37.632;2023-04-07T03:41:50;99923.75;;;8.41;nan
72975;BME280;61166;54.228;37.632;2023-04-07T03:44:17;99938.06;;;8.98;nan
72975;BME280;61166;54.228;37.632;2023-04-07T03:46:43;99935.22;;;9.14;nan
72975;BME280;61166;54.228;37.632;2023-04-07T03:49:10;99931.63;;;9.36;nan
72975;BME280;61166;54.228;37.632;2023-04-07T03:51:36;99928.50;;;9.62;nan
72975;BME280;61166;54.228;37.632;2023-04-07T03:54:03;99925.25;;;10.31;nan
72975;BME280;61166;54.228;37.632;2023-04-07T03:56:30;99929.38;;;10.40;nan
72975;BME280;61166;54.228;37.632;2023-04-07T03:58:56;99931.16;;;10.67;nan
72975;BME280;61166;54.228;37.632;2023-04-07T04:01:23;99924.13;;;10.74;nan
72975;BME280;61166;54.228;37.632;2023-04-07T04:03:49;99931.94;;;10.61;nan
72975;BME280;61166;54.228;37.632;2023-04-07T04:06:16;99937.09;;;11.23;nan
72975;BME280;61166;54.228;37.632;2023-04-07T04:08:43;99931.72;;;11.51;nan
72975;BME280;61166;54.228;37.632;2023-04-07T04:11:09;99927.72;;;12.15;nan
72975;BME280;61166;54.228;37.632;2023-04-07T04:13:36;99928.75;;;12.34;nan
72975;BME280;61166;54.228;37.632;2023-04-07T04:16:03;99934.41;;;12.44;nan
72975;BME280;61166;54.228;37.632;2023-04-07T04:18:30;99927.22;;;13.35;nan
72975;BME280;61166;54.228;37.632;2023-04-07T04:20:56;99938.78;;;13.79;nan
72975;BME280;61166;54.228;37.632;2023-04-07T04:23:23;99930.44;;;13.82;nan
72975;BME280;61166;54.228;37.632;2023-04-07T04:25:49;99929.59;;;14.56;nan
72975;BME280;61166;54.228;37.632;2023-04-07T04:28:16;99930.34;;;14.63;nan
72975;BME280;61166;54.228;37.632;2023-04-07T04:30:42;99934.34;;;15.39;nan
72975;BME280;61166;54.228;37.632;2023-04-07T04:33:09;99935.81;;;16.18;nan
72975;BME280;61166;54.228;37.632;2023-04-07T04:35:35;99935.00;;;16.17;nan
72975;BME280;61166;54.228;37.632;2023-04-07T04:38:02;99937.44;;;16.19;nan
72975;BME280;61166;54.228;37.632;2023-04-07T04:40:28;99943.44;;;16.26;nan
72975;BME280;61166;54.228;37.632;2023-04-07T04:42:55;99930.09;;;16.68;nan
72975;BME280;61166;54.228;37.632;2023-04-07T04:45:21;99937.25;;;17.19;nan
72975;BME280;61166;54.228;37.632;2023-04-07T04:47:48;99932.06;;;18.53;nan
72975;BME280;61166;54.228;37.632;2023-04-07T04:50:15;99931.78;;;17.99;nan
72975;BME280;61166;54.228;37.632;2023-04-07T04:52:41;99938.25;;;18.03;nan
72975;BME280;61166;54.228;37.632;2023-04-07T04:55:08;99938.53;;;18.57;nan
72975;BME280;61166;54.228;37.632;2023-04-07T04:57:35;99946.72;;;17.55;nan
72975;BME280;61166;54.228;37.632;2023-04-07T05:00:02;99947.66;;;17.49;nan
72975;BME280;61166;54.228;37.632;2023-04-07T05:02:28;99947.19;;;18.47;nan
72975;BME280;61166;54.228;37.632;2023-04-07T05:04:55;99952.38;;;18.93;nan
72975;BME280;61166;54.228;37.632;2023-04-07T05:07:22;99949.16;;;18.91;nan
72975;BME280;61166;54.228;37.632;2023-04-07T05:09:48;99962.13;;;18.32;nan
72975;BME280;61166;54.228;37.632;2023-04-07T05:12:15;99958.16;;;18.68;nan
72975;BME280;61166;54.228;37.632;2023-04-07T05:14:42;99959.59;;;19.41;nan
72975;BME280;61166;54.228;37.632;2023-04-07T05:17:08;99952.75;;;20.04;nan
72975;BME280;61166;54.228;37.632;2023-04-07T05:19:35;99956.03;;;19.52;nan
72975;BME280;61166;54.228;37.632;2023-04-07T05:22:01;99963.31;;;19.62;nan
72975;BME280;61166;54.228;37.632;2023-04-07T05:24:28;99962.34;;;20.00;nan
72975;BME280;61166;54.228;37.632;2023-04-07T05:26:55;99961.88;;;20.40;nan
72975;BME280;61166;54.228;37.632;2023-04-07T05:29:22;99964.72;;;19.96;nan
72975;BME280;61166;54.228;37.632;2023-04-07T05:31:48;99954.97;;;20.49;nan
72975;BME280;61166;54.228;37.632;2023-04-07T05:34:15;99952.69;;;20.31;nan
72975;BME280;61166;54.228;37.632;2023-04-07T05:36:41;99946.84;;;21.43;nan
72975;BME280;61166;54.228;37.632;2023-04-07T05:39:08;99959.47;;;21.58;nan
72975;BME280;61166;54.228;37.632;2023-04-07T05:41:35;99953.59;;;21.66;nan
72975;BME280;61166;54.228;37.632;2023-04-07T05:44:01;99959.19;;;21.50;nan
72975;BME280;61166;54.228;37.632;2023-04-07T05:46:28;99955.00;;;21.94;nan
72975;BME280;61166;54.228;37.632;2023-04-07T05:48:54;99966.22;;;21.76;nan
72975;BME280;61166;54.228;37.632;2023-04-07T05:51:21;99960.63;;;22.03;nan
72975;BME280;61166;54.228;37.632;2023-04-07T05:53:47;99963.81;;;22.00;nan
72975;BME280;61166;54.228;37.632;2023-04-07T05:56:14;99960.53;;;21.52;nan
72975;BME280;61166;54.228;37.632;2023-04-07T05:58:41;99967.81;;;21.82;nan
72975;BME280;61166;54.228;37.632;2023-04-07T06:01:07;99961.97;;;22.11;nan
72975;BME280;61166;54.228;37.632;2023-04-07T06:03:34;99967.72;;;21.31;nan
72975;BME280;61166;54.228;37.632;2023-04-07T06:06:00;99967.31;;;21.07;nan
72975;BME280;61166;54.228;37.632;2023-04-07T06:08:27;99964.53;;;21.50;nan
72975;BME280;61166;54.228;37.632;2023-04-07T06:10:53;99965.97;;;22.18;nan
72975;BME280;61166;54.228;37.632;2023-04-07T06:13:20;99971.03;;;21.99;nan
72975;BME280;61166;54.228;37.632;2023-04-07T06:15:46;99978.78;;;21.75;nan
72975;BME280;61166;54.228;37.632;2023-04-07T06:18:13;99978.44;;;21.47;nan
72975;BME280;61166;54.228;37.632;2023-04-07T06:20:39;99978.25;;;21.68;nan
72975;BME280;61166;54.228;37.632;2023-04-07T06:23:06;99983.13;;;22.32;nan
72975;BME280;61166;54.228;37.632;2023-04-07T06:25:32;99981.00;;;23.29;nan
72975;BME280;61166;54.228;37.632;2023-04-07T06:27:59;99982.25;;;22.88;nan
72975;BME280;61166;54.228;37.632;2023-04-07T06:30:25;99981.47;;;23.47;nan
72975;BME280;61166;54.228;37.632;2023-04-07T06:32:52;99980.38;;;22.83;nan
72975;BME280;61166;54.228;37.632;2023-04-07T06:35:19;99981.00;;;23.29;nan
72975;BME280;61166;54.228;37.632;2023-04-07T06:37:45;99972.97;;;23.29;nan
72975;BME280;61166;54.228;37.632;2023-04-07T06:40:12;99978.06;;;23.80;nan
72975;BME280;61166;54.228;37.632;2023-04-07T06:42:38;99977.16;;;23.51;nan
72975;BME280;61166;54.228;37.632;2023-04-07T06:45:05;99973.94;;;23.54;nan
72975;BME280;61166;54.228;37.632;2023-04-07T06:47:32;99979.03;;;22.91;nan
72975;BME280;61166;54.228;37.632;2023-04-07T06:49:59;99978.22;;;22.95;nan
72975;BME280;61166;54.228;37.632;2023-04-07T06:52:25;99976.13;;;22.01;nan
72975;BME280;61166;54.228;37.632;2023-04-07T06:54:52;99982.84;;;21.88;nan
72975;BME280;61166;54.228;37.632;2023-04-07T06:57:18;99983.34;;;21.85;nan
72975;BME280;61166;54.228;37.632;2023-04-07T06:59:45;99983.38;;;21.90;nan
72975;BME280;61166;54.228;37.632;2023-04-07T07:02:11;99980.06;;;21.53;nan
72975;BME280;61166;54.228;37.632;2023-04-07T07:04:38;99985.38;;;21.32;nan
72975;BME280;61166;54.228;37.632;2023-04-07T07:07:04;99987.56;;;21.51;nan
72975;BME280;61166;54.228;37.632;2023-04-07T07:09:31;99987.56;;;21.51;nan
72975;BME280;61166;54.228;37.632;2023-04-07T07:11:57;99989.72;;;21.54;nan
72975;BME280;61166;54.228;37.632;2023-04-07T07:14:24;99972.97;;;21.11;nan
72975;BME280;61166;54.228;37.632;2023-04-07T07:16:50;99983.00;;;21.51;nan
72975;BME280;61166;54.228;37.632;2023-04-07T07:19:17;99978.75;;;21.55;nan
72975;BME280;61166;54.228;37.632;2023-04-07T07:21:43;99981.44;;;20.98;nan
72975;BME280;61166;54.228;37.632;2023-04-07T07:24:10;99989.00;;;20.59;nan
72975;BME280;61166;54.228;37.632;2023-04-07T07:26:36;99988.03;;;19.79;nan
72975;BME280;61166;54.228;37.632;2023-04-07T07:29:03;99990.44;;;19.81;nan
72975;BME280;61166;54.228;37.632;2023-04-07T07:31:29;99984.75;;;19.99;nan
72975;BME280;61166;54.228;37.632;2023-04-07T07:33:56;99985.50;;;19.94;nan
72975;BME280;61166;54.228;37.632;2023-04-07T07:36:23;99994.66;;;19.50;nan
72975;BME280;61166;54.228;37.632;2023-04-07T07:38:50;99998.66;;;19.74;nan
72975;BME280;61166;54.228;37.632;2023-04-07T07:41:16;99990.75;;;19.84;nan
72975;BME280;61166;54.228;37.632;2023-04-07T07:43:43;99999.56;;;19.58;nan
72975;BME280;61166;54.228;37.632;2023-04-07T07:46:09;99984.22;;;19.26;nan
72975;BME280;61166;54.228;37.632;2023-04-07T07:48:36;99996.19;;;19.94;nan
72975;BME280;61166;54.228;37.632;2023-04-07T07:51:03;99980.47;;;19.71;nan
72975;BME280;61166;54.228;37.632;2023-04-07T07:53:29;99984.13;;;19.60;nan
72975;BME280;61166;54.228;37.632;2023-04-07T07:55:56;99989.50;;;19.43;nan
72975;BME280;61166;54.228;37.632;2023-04-07T07:58:22;100001.81;;;19.71;nan
72975;BME280;61166;54.228;37.632;2023-04-07T08:00:49;99993.53;;;20.58;nan
72975;BME280;61166;54.228;37.632;2023-04-07T08:03:15;99998.47;;;21.29;nan
72975;BME280;61166;54.228;37.632;2023-04-07T08:05:42;99990.25;;;20.93;nan
72975;BME280;61166;54.228;37.632;2023-04-07T08:08:09;99989.03;;;20.64;nan
72975;BME280;61166;54.228;37.632;2023-04-07T08:10:35;99998.66;;;21.17;nan
72975;BME280;61166;54.228;37.632;2023-04-07T08:13:02;99985.00;;;22.52;nan
72975;BME280;61166;54.228;37.632;2023-04-07T08:15:28;99991.91;;;22.89;nan
72975;BME280;61166;54.228;37.632;2023-04-07T08:17:55;99987.88;;;22.96;nan
72975;BME280;61166;54.228;37.632;2023-04-07T08:20:23;99997.53;;;22.72;nan
72975;BME280;61166;54.228;37.632;2023-04-07T08:22:49;99982.94;;;23.19;nan
72975;BME280;61166;54.228;37.632;2023-04-07T08:25:16;99975.84;;;22.58;nan
72975;BME280;61166;54.228;37.632;2023-04-07T08:27:42;99984.13;;;22.87;nan
72975;BME280;61166;54.228;37.632;2023-04-07T08:30:09;100003.09;;;21.54;nan
72975;BME280;61166;54.228;37.632;2023-04-07T08:32:37;99993.22;;;20.55;nan
72975;BME280;61166;54.228;37.632;2023-04-07T08:35:04;99997.66;;;20.76;nan
72975;BME280;61166;54.228;37.632;2023-04-07T08:37:32;99985.75;;;21.04;nan
72975;BME280;61166;54.228;37.632;2023-04-07T08:39:59;99984.88;;;21.51;nan
72975;BME280;61166;54.228;37.632;2023-04-07T08:42:29;99990.88;;;22.08;nan
72975;BME280;61166;54.228;37.632;2023-04-07T08:44:56;99980.19;;;22.24;nan
72975;BME280;61166;54.228;37.632;2023-04-07T08:47:27;99999.47;;;22.46;nan
72975;BME280;61166;54.228;37.632;2023-04-07T08:50:03;99988.75;;;22.16;nan
72975;BME280;61166;54.228;37.632;2023-04-07T08:52:54;99992.75;;;21.93;nan
72975;BME280;61166;54.228;37.632;2023-04-07T08:55:21;100000.50;;;21.89;nan
72975;BME280;61166;54.228;37.632;2023-04-07T08:57:48;99997.97;;;21.47;nan
72975;BME280;61166;54.228;37.632;2023-04-07T09:00:15;99985.53;;;22.34;nan
72975;BME280;61166;54.228;37.632;2023-04-07T09:02:43;100002.63;;;21.97;nan
72975;BME280;61166;54.228;37.632;2023-04-07T09:05:11;99997.59;;;22.21;nan
72975;BME280;61166;54.228;37.632;2023-04-07T09:07:38;99998.66;;;22.35;nan
72975;BME280;61166;54.228;37.632;2023-04-07T09:10:05;100014.47;;;22.12;nan
72975;BME280;61166;54.228;37.632;2023-04-07T09:12:33;100011.13;;;21.59;nan
72975;BME280;61166;54.228;37.632;2023-04-07T09:15:00;100006.38;;;21.81;nan
72975;BME280;61166;54.228;37.632;2023-04-07T09:17:27;100005.34;;;22.07;nan
72975;BME280;61166;54.228;37.632;2023-04-07T09:19:58;100022.97;;;21.73;nan
72975;BME280;61166;54.228;37.632;2023-04-07T09:22:34;100006.16;;;22.13;nan
72975;BME280;61166;54.228;37.632;2023-04-07T09:25:18;99995.72;;;22.47;nan
72975;BME280;61166;54.228;37.632;2023-04-07T09:28:02;100011.97;;;21.69;nan
72975;BME280;61166;54.228;37.632;2023-04-07T09:30:31;100001.84;;;21.14;nan
72975;BME280;61166;54.228;37.632;2023-04-07T09:32:59;100006.56;;;21.49;nan
72975;BME280;61166;54.228;37.632;2023-04-07T09:35:26;99995.97;;;21.12;nan
72975;BME280;61166;54.228;37.632;2023-04-07T09:38:07;99995.91;;;21.02;nan
72975;BME280;61166;54.228;37.632;2023-04-07T09:40:35;100008.16;;;20.93;nan
72975;BME280;61166;54.228;37.632;2023-04-07T09:43:05;99993.53;;;20.58;nan
72975;BME280;61166;54.228;37.632;2023-04-07T09:45:32;100004.47;;;21.04;nan
72975;BME280;61166;54.228;37.632;2023-04-07T09:48:20;99996.03;;;20.80;nan
72975;BME280;61166;54.228;37.632;2023-04-07T09:50:47;100001.44;;;20.11;nan
72975;BME280;61166;54.228;37.632;2023-04-07T09:53:14;99986.22;;;19.14;nan
72975;BME280;61166;54.228;37.632;2023-04-07T09:55:41;100008.19;;;18.49;nan
72975;BME280;61166;54.228;37.632;2023-04-07T09:58:08;99991.66;;;18.64;nan
72975;BME280;61166;54.228;37.632;2023-04-07T10:00:37;100002.03;;;17.81;nan
72975;BME280;61166;54.228;37.632;2023-04-07T10:03:04;100003.88;;;16.77;nan
72975;BME280;61166;54.228;37.632;2023-04-07T10:05:31;99997.84;;;16.59;nan
72975;BME280;61166;54.228;37.632;2023-04-07T10:07:59;100008.34;;;15.59;nan
72975;BME280;61166;54.228;37.632;2023-04-07T10:10:26;100016.94;;;14.00;nan
72975;BME280;61166;54.228;37.632;2023-04-07T10:12:55;100001.09;;;13.17;nan
72975;BME280;61166;54.228;37.632;2023-04-07T10:15:22;100021.81;;;12.94;nan
72975;BME280;61166;54.228;37.632;2023-04-07T10:17:50;100007.06;;;12.60;nan
72975;BME280;61166;54.228;37.632;2023-04-07T10:20:18;100014.38;;;12.51;nan
72975;BME280;61166;54.228;37.632;2023-04-07T10:22:45;100010.09;;;12.37;nan
72975;BME280;61166;54.228;37.632;2023-04-07T10:25:16;99999.94;;;12.20;nan
72975;BME280;61166;54.228;37.632;2023-04-07T10:27:46;99999.97;;;12.07;nan
72975;BME280;61166;54.228;37.632;2023-04-07T10:30:17;100001.97;;;12.05;nan
72975;BME280;61166;54.228;37.632;2023-04-07T10:32:50;100009.66;;;12.13;nan
72975;BME280;61166;54.228;37.632;2023-04-07T10:35:17;100008.28;;;12.11;nan
72975;BME280;61166;54.228;37.632;2023-04-07T10:40:34;100005.19;;;11.94;nan
72975;BME280;61166;54.228;37.632;2023-04-07T10:43:00;100015.53;;;11.89;nan
72975;BME280;61166;54.228;37.632;2023-04-07T10:48:17;100030.91;;;11.79;nan
72975;BME280;61166;54.228;37.632;2023-04-07T10:51:30;100011.84;;;11.77;nan
72975;BME280;61166;54.228;37.632;2023-04-07T10:53:31;100010.78;;;11.71;nan
72975;BME280;61166;54.228;37.632;2023-04-07T10:55:58;100022.75;;;11.74;nan
72975;BME280;61166;54.228;37.632;2023-04-07T10:58:28;100017.06;;;11.70;nan
72975;BME280;61166;54.228;37.632;2023-04-07T11:03:39;100023.38;;;11.76;nan
72975;BME280;61166;54.228;37.632;2023-04-07T11:06:07;100015.34;;;11.90;nan
72975;BME280;61166;54.228;37.632;2023-04-07T11:08:35;100021.81;;;11.88;nan
72975;BME280;61166;54.228;37.632;2023-04-07T11:11:03;100015.03;;;11.66;nan
72975;BME280;61166;54.228;37.632;2023-04-07T11:13:39;100012.38;;;11.59;nan
72975;BME280;61166;54.228;37.632;2023-04-07T11:16:06;100018.88;;;11.70;nan
72975;BME280;61166;54.228;37.632;2023-04-07T11:18:35;100027.78;;;11.62;nan
72975;BME280;61166;54.228;37.632;2023-04-07T11:21:02;100027.56;;;11.50;nan
72975;BME280;61166;54.228;37.632;2023-04-07T11:23:29;100017.84;;;11.64;nan
72975;BME280;61166;54.228;37.632;2023-04-07T11:25:59;100037.19;;;11.78;nan
72975;BME280;61166;54.228;37.632;2023-04-07T11:28:27;100016.25;;;11.70;nan
72975;BME280;61166;54.228;37.632;2023-04-07T11:30:54;100030.59;;;11.54;nan
72975;BME280;61166;54.228;37.632;2023-04-07T11:33:24;100019.84;;;11.55;nan
72975;BME280;61166;54.228;37.632;2023-04-07T11:35:52;100032.63;;;11.58;nan
72975;BME280;61166;54.228;37.632;2023-04-07T11:38:20;100014.81;;;11.54;nan
72975;BME280;61166;54.228;37.632;2023-04-07T11:40:47;100006.69;;;11.55;nan
72975;BME280;61166;54.228;37.632;2023-04-07T11:43:15;100009.94;;;11.57;nan
72975;BME280;61166;54.228;37.632;2023-04-07T11:45:42;100018.63;;;11.58;nan
72975;BME280;61166;54.228;37.632;2023-04-07T11:48:28;100014.19;;;11.58;nan
72975;BME280;61166;54.228;37.632;2023-04-07T11:50:55;100013.63;;;11.70;nan
72975;BME280;61166;54.228;37.632;2023-04-07T11:53:29;100015.16;;;12.05;nan
72975;BME280;61166;54.228;37.632;2023-04-07T11:56:14;100008.47;;;12.09;nan
72975;BME280;61166;54.228;37.632;2023-04-07T11:58:51;100008.47;;;12.03;nan
72975;BME280;61166;54.228;37.632;2023-04-07T12:01:18;100004.44;;;12.53;nan
72975;BME280;61166;54.228;37.632;2023-04-07T12:04:03;100019.41;;;12.79;nan
72975;BME280;61166;54.228;37.632;2023-04-07T12:06:32;100028.31;;;13.04;nan
72975;BME280;61166;54.228;37.632;2023-04-07T12:09:02;100013.28;;;12.98;nan
72975;BME280;61166;54.228;37.632;2023-04-07T12:11:29;100017.53;;;13.06;nan
72975;BME280;61166;54.228;37.632;2023-04-07T12:13:56;100059.19;;;12.84;nan
72975;BME280;61166;54.228;37.632;2023-04-07T12:16:24;100019.59;;;12.90;nan
72975;BME280;61166;54.228;37.632;2023-04-07T12:18:51;100033.22;;;12.87;nan
72975;BME280;61166;54.228;37.632;2023-04-07T12:21:18;100023.50;;;12.68;nan
72975;BME280;61166;54.228;37.632;2023-04-07T12:23:45;100020.06;;;12.61;nan
72975;BME280;61166;54.228;37.632;2023-04-07T12:26:13;100016.78;;;12.19;nan
72975;BME280;61166;54.228;37.632;2023-04-07T12:28:39;100036.00;;;11.87;nan
72975;BME280;61166;54.228;37.632;2023-04-07T12:31:06;100025.84;;;11.77;nan
72975;BME280;61166;54.228;37.632;2023-04-07T12:33:32;100035.91;;;11.67;nan
72975;BME280;61166;54.228;37.632;2023-04-07T12:35:59;100026.53;;;11.58;nan
72975;BME280;61166;54.228;37.632;2023-04-07T12:38:25;100024.53;;;11.53;nan
72975;BME280;61166;54.228;37.632;2023-04-07T12:40:52;100029.38;;;11.56;nan
72975;BME280;61166;54.228;37.632;2023-04-07T12:43:18;100021.69;;;11.62;nan
72975;BME280;61166;54.228;37.632;2023-04-07T12:45:45;100024.31;;;11.48;nan
72975;BME280;61166;54.228;37.632;2023-04-07T12:48:12;100028.94;;;11.46;nan
72975;BME280;61166;54.228;37.632;2023-04-07T12:50:38;100038.72;;;11.52;nan
72975;BME280;61166;54.228;37.632;2023-04-07T12:53:06;100020.44;;;11.44;nan
72975;BME280;61166;54.228;37.632;2023-04-07T12:55:32;100030.34;;;11.42;nan
72975;BME280;61166;54.228;37.632;2023-04-07T12:57:59;100028.94;;;11.46;nan
72975;BME280;61166;54.228;37.632;2023-04-07T13:00:25;100034.66;;;11.56;nan
72975;BME280;61166;54.228;37.632;2023-04-07T13:02:52;100028.34;;;11.44;nan
72975;BME280;61166;54.228;37.632;2023-04-07T13:05:19;100025.28;;;11.41;nan
72975;BME280;61166;54.228;37.632;2023-04-07T13:07:45;100018.19;;;11.41;nan
72975;BME280;61166;54.228;37.632;2023-04-07T13:10:14;100013.53;;;11.43;nan
72975;BME280;61166;54.228;37.632;2023-04-07T13:12:41;100022.00;;;11.32;nan
72975;BME280;61166;54.228;37.632;2023-04-07T13:15:07;100025.19;;;11.21;nan
72975;BME280;61166;54.228;37.632;2023-04-07T13:17:34;100020.53;;;11.23;nan
72975;BME280;61166;54.228;37.632;2023-04-07T13:20:02;100026.41;;;11.25;nan
72975;BME280;61166;54.228;37.632;2023-04-07T13:22:29;100011.41;;;11.19;nan
72975;BME280;61166;54.228;37.632;2023-04-07T13:24:57;100036.63;;;11.41;nan
72975;BME280;61166;54.228;37.632;2023-04-07T13:27:26;100028.41;;;11.16;nan
72975;BME280;61166;54.228;37.632;2023-04-07T13:29:52;100026.81;;;11.22;nan
72975;BME280;61166;54.228;37.632;2023-04-07T13:32:19;100024.41;;;11.27;nan
72975;BME280;61166;54.228;37.632;2023-04-07T13:34:45;100016.50;;;11.27;nan
72975;BME280;61166;54.228;37.632;2023-04-07T13:37:12;100023.63;;;11.33;nan
72975;BME280;61166;54.228;37.632;2023-04-07T13:39:38;100017.44;;;11.13;nan
72975;BME280;61166;54.228;37.632;2023-04-07T13:42:05;100032.16;;;11.35;nan
72975;BME280;61166;54.228;37.632;2023-04-07T13:44:32;100031.13;;;11.84;nan
72975;BME280;61166;54.228;37.632;2023-04-07T13:46:58;100024.09;;;12.11;nan
72975;BME280;61166;54.228;37.632;2023-04-07T13:49:25;100026.53;;;12.45;nan
72975;BME280;61166;54.228;37.632;2023-04-07T13:51:51;100031.00;;;12.12;nan
72975;BME280;61166;54.228;37.632;2023-04-07T13:54:18;100035.25;;;12.19;nan
72975;BME280;61166;54.228;37.632;2023-04-07T13:56:45;100027.34;;;12.39;nan
72975;BME280;61166;54.228;37.632;2023-04-07T13:59:12;100034.88;;;12.55;nan
72975;BME280;61166;54.228;37.632;2023-04-07T14:01:38;100036.06;;;12.27;nan
72975;BME280;61166;54.228;37.632;2023-04-07T14:04:05;100029.34;;;12.04;nan
72975;BME280;61166;54.228;37.632;2023-04-07T14:06:32;100031.56;;;11.94;nan
72975;BME280;61166;54.228;37.632;2023-04-07T14:08:58;100026.97;;;11.55;nan
72975;BME280;61166;54.228;37.632;2023-04-07T14:11:25;100027.25;;;11.32;nan
72975;BME280;61166;54.228;37.632;2023-04-07T14:13:53;100026.03;;;11.28;nan
72975;BME280;61166;54.228;37.632;2023-04-07T14:16:20;100030.38;;;11.08;nan
72975;BME280;61166;54.228;37.632;2023-04-07T14:18:47;100028.34;;;11.10;nan
72975;BME280;61166;54.228;37.632;2023-04-07T14:21:13;100035.16;;;10.98;nan